Etchingham, United Kingdom
Current Conditions -  °F | °C
As of 11:50 AM on Friday 19 Dec 2014 (Local Time) from EGMD Reporting Station
Scattered Clouds Scattered Clouds  
Wind Chill: 52°   Ceiling: Unl
Heat Index: 52°   Visibility: 6mi
Dew Point: 45°   Wind: 18mph
Humidity: 76%   Direction: 300°WNW
Pressure: 30"   Gusts: NA
Location:  51.01°N, 0.44°E
Report Text: EGMD 191150Z 30016KT 9999 SCT043 11/07 Q1016
Loading
Personal Weather Stations






























Interactive Weather Map New forecast layout! Learn more

10-Day Weather Forecast

Advertisements
Track Severe Weather on mobile